createdAt,value
2023-05-15T00:00:55.610Z,99946.00
2023-05-15T00:05:59.293Z,99938.09
2023-05-15T00:11:02.441Z,99922.97
2023-05-15T00:16:08.262Z,99921.78
2023-05-15T00:21:12.152Z,99930.34
2023-05-15T00:26:15.908Z,99926.00
2023-05-15T00:31:28.253Z,99929.28
2023-05-15T00:36:31.907Z,99929.94
2023-05-15T00:41:37.992Z,99918.38
2023-05-15T00:46:45.137Z,99913.56
2023-05-15T00:51:48.313Z,99906.00
2023-05-15T00:56:52.803Z,99899.59
2023-05-15T01:01:58.101Z,99900.75
2023-05-15T01:07:01.996Z,99897.28
2023-05-15T01:12:37.022Z,99889.56
2023-05-15T01:17:49.546Z,99878.38
2023-05-15T01:23:15.342Z,99878.53
2023-05-15T01:28:33.063Z,99881.63
2023-05-15T01:39:33.492Z,99872.22
2023-05-15T01:44:58.744Z,99870.72
2023-05-15T01:50:07.776Z,99861.72
2023-05-15T01:55:16.769Z,99852.47
2023-05-15T02:00:25.278Z,99850.34
2023-05-15T02:05:34.731Z,99848.84
2023-05-15T02:16:20.293Z,99838.97
2023-05-15T02:21:29.679Z,99828.09
2023-05-15T02:26:45.660Z,99834.66
2023-05-15T02:32:08.308Z,99833.97
2023-05-15T02:37:23.141Z,99828.06
2023-05-15T02:42:45.041Z,99822.28
2023-05-15T02:47:51.703Z,99804.25
2023-05-15T02:53:03.269Z,99806.69
2023-05-15T02:58:06.910Z,99797.84
2023-05-15T03:03:11.833Z,99798.66
2023-05-15T03:08:15.335Z,99797.16
2023-05-15T03:13:18.466Z,99800.47
2023-05-15T03:18:23.067Z,99802.94
2023-05-15T03:23:26.278Z,99796.19
2023-05-15T03:28:29.446Z,99787.50
2023-05-15T03:33:34.450Z,99795.38
2023-05-15T03:38:38.282Z,99792.75
2023-05-15T03:43:41.685Z,99792.09
2023-05-15T03:48:46.450Z,99788.47
2023-05-15T03:53:49.991Z,99791.09
2023-05-15T03:58:53.288Z,99785.69
2023-05-15T04:04:00.989Z,99785.06
2023-05-15T04:09:04.845Z,99783.91
2023-05-15T04:14:08.448Z,99778.84
2023-05-15T04:19:16.940Z,99783.50
2023-05-15T04:24:20.342Z,99777.75
2023-05-15T04:29:24.265Z,99779.09
2023-05-15T04:34:29.844Z,99780.28
2023-05-15T04:39:36.621Z,99774.38
2023-05-15T04:44:45.714Z,99771.09
2023-05-15T04:49:50.753Z,99772.91
2023-05-15T04:54:55.893Z,99764.22
2023-05-15T04:59:59.220Z,99761.09
2023-05-15T05:05:07.441Z,99767.88
2023-05-15T05:10:11.782Z,99774.78
2023-05-15T05:15:17.941Z,99756.56
2023-05-15T05:20:22.424Z,99753.28
2023-05-15T05:25:28.018Z,99746.84
2023-05-15T05:30:31.187Z,99752.75
2023-05-15T05:35:40.240Z,99741.88
2023-05-15T05:40:43.923Z,99749.88
2023-05-15T05:45:47.253Z,99750.28
2023-05-15T05:50:52.346Z,99747.50
2023-05-15T05:55:55.796Z,99748.66
2023-05-15T06:00:59.426Z,99746.31
2023-05-15T06:06:04.039Z,99745.75
2023-05-15T06:11:07.212Z,99740.81
2023-05-15T06:16:10.663Z,99733.91
2023-05-15T06:21:15.155Z,99728.50
2023-05-15T06:26:18.453Z,99724.47
2023-05-15T06:31:21.760Z,99723.69
2023-05-15T06:36:26.544Z,99728.97
2023-05-15T06:41:29.740Z,99734.56
2023-05-15T06:46:32.939Z,99716.28
2023-05-15T06:51:37.463Z,99721.13
2023-05-15T06:56:40.609Z,99718.97
2023-05-15T07:01:43.994Z,99703.09
2023-05-15T07:06:50.400Z,99697.13
2023-05-15T07:11:54.442Z,99690.91
2023-05-15T07:16:57.728Z,99701.34
2023-05-15T07:22:03.333Z,99691.81
2023-05-15T07:27:07.364Z,99685.16
2023-05-15T07:32:10.563Z,99678.31
2023-05-15T07:37:16.862Z,99682.91
2023-05-15T07:42:27.436Z,99681.69
2023-05-15T07:47:30.766Z,99684.44
2023-05-15T07:52:35.411Z,99680.06
2023-05-15T07:57:40.793Z,99670.03
2023-05-15T08:02:46.438Z,99676.44
2023-05-15T08:07:51.478Z,99672.38
2023-05-15T08:12:54.800Z,99671.34
2023-05-15T08:17:58.193Z,99658.34
2023-05-15T08:23:03.021Z,99667.44
2023-05-15T08:28:06.984Z,99660.56
2023-05-15T08:33:10.419Z,99657.31
2023-05-15T08:38:15.286Z,99647.66
2023-05-15T08:43:19.671Z,99641.03
2023-05-15T08:48:26.051Z,99639.38
2023-05-15T08:53:31.030Z,99638.94
2023-05-15T08:58:34.958Z,99635.22
2023-05-15T09:03:38.500Z,99631.09
2023-05-15T09:08:44.977Z,99632.03
2023-05-15T09:13:48.097Z,99629.94
2023-05-15T09:18:51.498Z,99618.69
2023-05-15T09:23:57.031Z,99619.84
2023-05-15T09:29:03.999Z,99622.41
2023-05-15T09:34:09.459Z,99605.06
2023-05-15T09:39:14.178Z,99608.78
2023-05-15T09:44:21.810Z,99607.41
2023-05-15T09:49:25.333Z,99615.09
2023-05-15T09:54:31.384Z,99603.81
2023-05-15T09:59:34.710Z,99599.38
2023-05-15T10:04:37.949Z,99603.09
2023-05-15T10:09:42.577Z,99593.91
2023-05-15T10:14:46.634Z,99592.59
2023-05-15T10:19:58.362Z,99590.78
2023-05-15T10:25:10.306Z,99588.22
2023-05-15T10:30:16.884Z,99595.94
2023-05-15T10:35:20.275Z,99590.31
2023-05-15T10:40:26.133Z,99582.09
2023-05-15T10:45:30.451Z,99578.25
2023-05-15T10:50:33.878Z,99573.34
2023-05-15T10:55:38.781Z,99561.41
2023-05-15T11:00:44.679Z,99560.00
2023-05-15T11:06:10.886Z,99547.22
2023-05-15T11:11:43.706Z,99548.38
2023-05-15T11:17:05.098Z,99543.59
2023-05-15T11:22:19.800Z,99538.84
2023-05-15T11:27:26.317Z,99530.09
2023-05-15T11:32:45.854Z,99527.88
2023-05-15T11:37:51.304Z,99522.31
2023-05-15T11:43:02.287Z,99521.19
2023-05-15T11:48:09.497Z,99526.06
2023-05-15T11:53:13.523Z,99520.59
2023-05-15T11:58:18.572Z,99528.84
2023-05-15T12:03:25.856Z,99534.22
2023-05-15T12:08:33.733Z,99527.66
2023-05-15T12:13:37.180Z,99532.66
2023-05-15T12:18:42.036Z,99534.13
2023-05-15T12:24:03.396Z,99521.41
2023-05-15T12:29:10.523Z,99524.06
2023-05-15T12:34:15.920Z,99519.84
2023-05-15T12:39:19.168Z,99513.41
2023-05-15T12:44:22.255Z,99517.25
2023-05-15T12:49:26.923Z,99517.25
2023-05-15T12:54:30.532Z,99508.56
2023-05-15T12:59:33.857Z,99507.84
2023-05-15T13:04:38.910Z,99491.66
2023-05-15T13:09:46.480Z,99493.06
2023-05-15T13:14:49.781Z,99491.09
2023-05-15T13:19:54.472Z,99489.47
2023-05-15T13:24:58.885Z,99479.97
2023-05-15T13:30:02.946Z,99491.47
2023-05-15T13:35:09.971Z,99501.63
2023-05-15T13:40:14.370Z,99522.81
2023-05-15T13:45:18.002Z,99523.22
2023-05-15T13:50:22.846Z,99538.09
2023-05-15T13:55:27.502Z,99563.25
2023-05-15T14:00:30.775Z,99570.44
2023-05-15T14:05:35.534Z,99542.31
2023-05-15T14:10:39.087Z,99520.66
2023-05-15T14:15:42.309Z,99515.63
2023-05-15T14:20:46.873Z,99512.34
2023-05-15T14:25:50.058Z,99494.09
2023-05-15T14:30:53.344Z,99492.41
2023-05-15T14:35:58.095Z,99496.03
2023-05-15T14:41:01.643Z,99493.94
2023-05-15T14:46:05.102Z,99495.91
2023-05-15T14:51:09.778Z,99492.88
2023-05-15T14:56:12.967Z,99481.78
2023-05-15T15:01:16.545Z,99485.47
2023-05-15T15:06:21.061Z,99501.28
2023-05-15T15:11:24.350Z,99498.81
2023-05-15T15:16:30.542Z,99492.91
2023-05-15T15:21:36.701Z,99500.47
2023-05-15T15:26:40.476Z,99510.78
2023-05-15T15:31:44.052Z,99510.59
2023-05-15T15:36:48.948Z,99498.16
2023-05-15T15:41:52.541Z,99502.22
2023-05-15T15:46:55.874Z,99499.69
2023-05-15T15:52:00.952Z,99508.00
2023-05-15T15:57:05.790Z,99521.88
2023-05-15T16:02:09.976Z,99521.53
2023-05-15T16:07:18.094Z,99522.97
2023-05-15T16:12:21.597Z,99526.50
2023-05-15T16:17:25.985Z,99514.13
2023-05-15T16:22:31.384Z,99515.00
2023-05-15T16:27:34.483Z,99511.34
2023-05-15T16:32:41.274Z,99514.03
2023-05-15T16:37:48.736Z,99513.88
2023-05-15T16:42:52.481Z,99519.38
2023-05-15T16:47:56.534Z,99520.41
2023-05-15T16:53:02.334Z,99522.47
2023-05-15T16:58:05.755Z,99532.66
2023-05-15T17:03:09.391Z,99531.22
2023-05-15T17:08:14.067Z,99536.31
2023-05-15T17:13:20.435Z,99546.75
2023-05-15T17:18:24.211Z,99538.78
2023-05-15T17:23:28.805Z,99549.78
2023-05-15T17:28:32.748Z,99539.16
2023-05-15T17:33:36.040Z,99541.59
2023-05-15T17:38:40.950Z,99539.56
2023-05-15T17:43:44.466Z,99546.50
2023-05-15T17:48:48.071Z,99542.84
2023-05-15T17:53:52.973Z,99556.19
2023-05-15T17:58:56.679Z,99558.25
2023-05-15T18:04:00.315Z,99562.16
2023-05-15T18:09:05.494Z,99570.34
2023-05-15T18:14:08.768Z,99578.75
2023-05-15T18:19:11.988Z,99585.88
2023-05-15T18:24:16.695Z,99584.44
2023-05-15T18:29:20.034Z,99603.44
2023-05-15T18:34:23.450Z,99599.16
2023-05-15T18:39:28.480Z,99608.75
2023-05-15T18:44:34.855Z,99621.03
2023-05-15T18:49:38.276Z,99616.53
2023-05-15T18:54:43.138Z,99619.75
2023-05-15T18:59:47.823Z,99628.53
2023-05-15T19:04:51.280Z,99632.78
2023-05-15T19:09:55.991Z,99646.25
2023-05-15T19:14:59.269Z,99658.91
2023-05-15T19:20:02.751Z,99669.06
2023-05-15T19:25:08.540Z,99665.56
2023-05-15T19:30:12.462Z,99682.84
2023-05-15T19:35:16.090Z,99691.34
2023-05-15T19:40:20.909Z,99692.09
2023-05-15T19:45:24.563Z,99693.22
2023-05-15T19:50:28.061Z,99687.22
2023-05-15T19:55:32.874Z,99684.47
2023-05-15T20:00:36.556Z,99689.28
2023-05-15T20:05:41.800Z,99695.13
2023-05-15T20:10:52.210Z,99699.75
2023-05-15T20:15:57.166Z,99703.13
2023-05-15T20:21:00.921Z,99702.69
2023-05-15T20:26:05.691Z,99705.91
2023-05-15T20:31:09.016Z,99717.88
2023-05-15T20:36:12.535Z,99720.25
2023-05-15T20:41:17.726Z,99720.00
2023-05-15T20:46:21.308Z,99725.44
2023-05-15T20:51:24.660Z,99714.72
2023-05-15T20:56:29.295Z,99721.47
2023-05-15T21:01:32.991Z,99720.34
2023-05-15T21:06:37.052Z,99724.25
2023-05-15T21:11:41.601Z,99719.47
2023-05-15T21:16:44.974Z,99722.38
2023-05-15T21:21:48.260Z,99722.81
2023-05-15T21:26:53.408Z,99731.19
2023-05-15T21:31:57.048Z,99732.94
2023-05-15T21:37:00.400Z,99738.50
2023-05-15T21:42:06.373Z,99744.84
2023-05-15T21:47:09.556Z,99746.56
2023-05-15T21:52:12.753Z,99747.63
2023-05-15T21:57:17.273Z,99749.72
2023-05-15T22:02:20.475Z,99759.69
2023-05-15T22:07:23.816Z,99759.59
2023-05-15T22:12:28.458Z,99771.00
2023-05-15T22:17:32.093Z,99779.34
2023-05-15T22:22:35.539Z,99777.56
2023-05-15T22:27:40.328Z,99786.72
2023-05-15T22:32:43.918Z,99787.72
2023-05-15T22:37:47.418Z,99786.81
2023-05-15T22:42:52.715Z,99793.75
2023-05-15T22:47:55.991Z,99791.97
2023-05-15T22:52:59.417Z,99798.13
2023-05-15T22:58:04.130Z,99804.06
2023-05-15T23:03:07.880Z,99800.63
2023-05-15T23:08:11.329Z,99800.69
2023-05-15T23:13:15.880Z,99803.16
2023-05-15T23:18:19.575Z,99812.56
2023-05-15T23:23:22.905Z,99818.81
2023-05-15T23:28:27.753Z,99823.09
2023-05-15T23:33:31.160Z,99821.94
2023-05-15T23:38:34.598Z,99831.69
2023-05-15T23:43:39.218Z,99821.97
2023-05-15T23:48:42.573Z,99836.16
2023-05-15T23:53:45.754Z,99834.34
2023-05-15T23:58:50.526Z,99832.53
